Time;durP1;ratioP1;P1;durP2;ratioP2;P2;SDS_P1;SDS_P2;PMS_P1;PMS_P2;Temp;Humidity;BMP_temperature;BMP_pressure;BME280_temperature;BME280_humidity;BME280_pressure;Samples;Min_cycle;Max_cycle;Signal;HPM_P1;HPM_P2
2021/09/25 00:00:06;;;;;;;3.13;2.83;;;22.70;48.50;;;;;;5022399;28;20053;-68
2021/09/25 00:02:33;;;;;;;3.47;3.17;;;22.70;47.90;;;;;;5021013;28;20137;-69
2021/09/25 00:05:01;;;;;;;4.68;3.40;;;22.70;47.90;;;;;;5027329;28;20116;-69
2021/09/25 00:07:28;;;;;;;4.65;3.42;;;22.70;47.90;;;;;;5026687;28;20413;-68
2021/09/25 00:09:55;;;;;;;2.90;2.67;;;22.70;47.90;;;;;;5023413;28;20668;-69
2021/09/25 00:12:22;;;;;;;3.75;3.00;;;22.70;47.90;;;;;;5024209;28;20152;-69
2021/09/25 00:14:50;;;;;;;3.40;3.10;;;22.70;47.90;;;;;;5030502;28;20081;-69
2021/09/25 00:17:17;;;;;;;3.22;2.97;;;22.70;47.90;;;;;;5030511;28;20045;-69
2021/09/25 00:19:44;;;;;;;3.38;2.92;;;22.70;47.90;;;;;;5025409;28;20615;-68
2021/09/25 00:22:11;;;;;;;3.13;2.83;;;22.70;47.90;;;;;;5024563;28;20140;-69
2021/09/25 00:24:38;;;;;;;2.97;2.55;;;22.70;47.90;;;;;;5030134;28;20045;-68
2021/09/25 00:27:05;;;;;;;2.78;2.47;;;22.70;47.90;;;;;;5029976;28;20104;-69
2021/09/25 00:29:32;;;;;;;3.40;2.95;;;22.70;47.90;;;;;;5028710;28;20042;-67
2021/09/25 00:32:00;;;;;;;3.50;3.13;;;22.70;47.90;;;;;;5021136;28;20049;-69
2021/09/25 00:34:27;;;;;;;3.08;2.78;;;22.70;47.90;;;;;;5030118;28;20049;-69
2021/09/25 00:36:55;;;;;;;3.42;3.13;;;22.70;47.90;;;;;;5029720;28;20450;-69
2021/09/25 00:39:22;;;;;;;3.20;2.90;;;22.70;48.00;;;;;;5029770;28;20099;-69
2021/09/25 00:41:49;;;;;;;3.17;2.83;;;22.70;48.00;;;;;;5019634;28;20049;-68
2021/09/25 00:44:16;;;;;;;3.15;2.85;;;22.70;48.10;;;;;;5029457;28;20091;-68
2021/09/25 00:46:43;;;;;;;3.25;2.88;;;22.70;48.10;;;;;;5030022;28;20141;-70
2021/09/25 00:49:17;;;;;;;5.22;3.10;;;22.60;48.10;;;;;;5029884;28;20065;-69
2021/09/25 00:51:45;;;;;;;3.42;3.13;;;22.60;48.20;;;;;;5020690;28;20413;-69
2021/09/25 00:54:13;;;;;;;3.67;3.08;;;22.60;48.50;;;;;;5029700;28;20144;-68
2021/09/25 00:56:41;;;;;;;3.20;2.88;;;22.60;48.20;;;;;;5029402;28;20042;-69
2021/09/25 00:59:08;;;;;;;3.30;3.00;;;22.60;48.20;;;;;;5029264;28;20136;-69
2021/09/25 01:01:37;;;;;;;3.13;2.85;;;22.60;48.80;;;;;;5019455;28;20053;-68
2021/09/25 01:04:04;;;;;;;4.07;2.80;;;22.60;48.20;;;;;;5029318;28;20449;-69
2021/09/25 01:06:32;;;;;;;3.20;2.90;;;22.70;48.20;;;;;;5029506;28;20049;-69
2021/09/25 01:08:59;;;;;;;3.35;3.05;;;22.60;48.20;;;;;;5029409;28;20099;-68
2021/09/25 01:11:27;;;;;;;3.35;3.05;;;22.60;48.20;;;;;;5021293;28;20143;-68
2021/09/25 01:13:54;;;;;;;3.08;2.78;;;22.60;48.20;;;;;;5028952;28;20084;-69
2021/09/25 01:16:22;;;;;;;3.08;2.78;;;22.60;48.20;;;;;;5029420;28;20053;-68
2021/09/25 01:18:51;;;;;;;2.92;2.63;;;22.60;48.20;;;;;;5028990;28;20072;-69
2021/09/25 01:21:18;;;;;;;3.40;3.10;;;22.60;48.20;;;;;;5019130;28;20050;-68
2021/09/25 01:23:45;;;;;;;4.35;3.25;;;22.60;48.20;;;;;;5028770;28;20041;-68
2021/09/25 01:26:13;;;;;;;3.25;2.90;;;22.60;48.70;;;;;;5028839;28;20144;-69
2021/09/25 01:28:42;;;;;;;4.68;3.15;;;22.60;48.10;;;;;;5029036;28;20111;-68
2021/09/25 01:31:12;;;;;;;3.13;2.83;;;22.60;48.10;;;;;;5016329;28;20391;-68
2021/09/25 01:33:42;;;;;;;5.30;2.90;;;22.60;48.20;;;;;;5028685;28;20056;-68
2021/09/25 01:36:10;;;;;;;3.10;2.80;;;22.60;48.10;;;;;;5029019;28;20128;-68
2021/09/25 01:38:38;;;;;;;3.08;2.72;;;22.60;48.20;;;;;;5028683;28;20051;-68
2021/09/25 01:41:05;;;;;;;3.85;2.50;;;22.60;48.10;;;;;;5018713;28;20080;-68
2021/09/25 01:43:33;;;;;;;3.58;3.28;;;22.60;48.10;;;;;;5026977;28;20057;-69
2021/09/25 01:46:00;;;;;;;2.83;2.63;;;22.60;48.10;;;;;;5028632;28;20045;-68
2021/09/25 01:48:27;;;;;;;3.35;2.78;;;22.60;48.10;;;;;;5028544;28;20050;-68
2021/09/25 01:50:55;;;;;;;2.58;2.38;;;22.60;48.10;;;;;;5017267;28;20132;-68
2021/09/25 01:53:22;;;;;;;3.38;3.03;;;22.60;48.20;;;;;;5028788;28;20477;-68
2021/09/25 01:55:50;;;;;;;3.38;3.08;;;22.60;48.70;;;;;;5028600;28;20453;-68
2021/09/25 01:58:18;;;;;;;3.60;2.85;;;22.60;48.20;;;;;;5028208;28;20053;-69
2021/09/25 02:00:45;;;;;;;3.25;2.95;;;22.60;48.20;;;;;;5021577;28;20136;-68
2021/09/25 02:03:13;;;;;;;2.92;2.60;;;22.60;48.20;;;;;;5026716;28;20053;-69
2021/09/25 02:05:40;;;;;;;2.83;2.60;;;22.60;48.20;;;;;;5028048;28;20050;-68
2021/09/25 02:08:07;;;;;;;3.28;2.92;;;22.60;48.30;;;;;;5027037;28;20509;-68
2021/09/25 02:10:35;;;;;;;2.67;2.45;;;22.60;48.40;;;;;;5019868;28;20559;-68
2021/09/25 02:13:02;;;;;;;3.47;3.05;;;22.50;48.30;;;;;;5024221;28;20049;-69
2021/09/25 02:15:32;;;;;;;2.80;2.58;;;22.50;48.30;;;;;;5027896;28;20045;-68
2021/09/25 02:17:59;;;;;;;4.53;2.47;;;22.50;48.30;;;;;;5028501;28;20237;-69
2021/09/25 02:20:26;;;;;;;2.78;2.58;;;22.50;48.30;;;;;;5019543;28;20230;-68
2021/09/25 02:22:54;;;;;;;2.85;2.65;;;22.50;48.30;;;;;;5024277;28;20050;-69
2021/09/25 02:25:21;;;;;;;2.85;2.53;;;22.50;48.30;;;;;;5027416;28;20099;-69
2021/09/25 02:27:51;;;;;;;3.33;3.03;;;22.50;48.30;;;;;;5028185;28;20522;-69
2021/09/25 02:30:20;;;;;;;2.72;2.53;;;22.50;48.40;;;;;;5019566;28;20476;-68
2021/09/25 02:32:48;;;;;;;3.33;2.92;;;22.50;48.30;;;;;;5023364;28;20045;-68
2021/09/25 02:35:19;;;;;;;2.60;2.40;;;22.50;48.30;;;;;;5027422;28;20410;-68
2021/09/25 02:37:47;;;;;;;2.50;2.30;;;22.50;48.30;;;;;;5027863;28;20195;-69
2021/09/25 02:40:16;;;;;;;2.58;2.17;;;22.50;48.30;;;;;;5020543;28;20049;-67
2021/09/25 02:42:44;;;;;;;2.75;2.55;;;22.50;48.30;;;;;;5025707;28;20148;-68
2021/09/25 02:45:14;;;;;;;2.70;2.50;;;22.50;48.30;;;;;;5027302;28;20136;-68
2021/09/25 02:47:41;;;;;;;3.30;3.00;;;22.50;48.30;;;;;;5027454;28;20136;-69
2021/09/25 02:50:12;;;;;;;3.10;2.80;;;22.50;48.30;;;;;;5022263;28;20285;-68
2021/09/25 02:52:39;;;;;;;2.53;2.30;;;22.50;48.30;;;;;;5025228;28;20052;-68
2021/09/25 02:55:07;;;;;;;3.25;2.95;;;22.50;48.30;;;;;;5025758;28;20049;-69
2021/09/25 02:57:34;;;;;;;3.95;2.70;;;22.50;48.30;;;;;;5027348;28;20049;-68
2021/09/25 03:00:07;;;;;;;2.67;2.47;;;22.50;48.30;;;;;;5023867;28;20049;-68
2021/09/25 03:02:35;;;;;;;3.03;2.78;;;22.50;48.30;;;;;;5020706;28;20153;-69
2021/09/25 03:05:03;;;;;;;2.60;2.40;;;22.50;48.30;;;;;;5027448;28;20052;-68
2021/09/25 03:07:30;;;;;;;2.20;2.05;;;22.50;48.30;;;;;;5027584;28;20766;-68
2021/09/25 03:09:57;;;;;;;2.50;2.30;;;22.50;48.30;;;;;;5022827;28;20046;-68
2021/09/25 03:12:24;;;;;;;3.88;2.60;;;22.50;48.30;;;;;;5021339;28;20085;-68
2021/09/25 03:14:51;;;;;;;3.35;2.83;;;22.50;48.30;;;;;;5027021;28;20761;-69
2021/09/25 03:17:18;;;;;;;2.83;2.58;;;22.50;48.30;;;;;;5027371;28;20096;-69
2021/09/25 03:19:46;;;;;;;3.10;2.67;;;22.50;48.30;;;;;;5021887;28;20049;-67
2021/09/25 03:22:15;;;;;;;4.10;2.90;;;22.50;48.30;;;;;;5021643;28;20077;-68
2021/09/25 03:24:43;;;;;;;3.63;2.60;;;22.50;48.30;;;;;;5026045;28;20472;-68
2021/09/25 03:27:10;;;;;;;2.53;2.33;;;22.50;48.30;;;;;;5026908;28;20529;-68
2021/09/25 03:29:38;;;;;;;2.50;2.30;;;22.50;48.30;;;;;;5026172;28;20053;-68
2021/09/25 03:32:05;;;;;;;3.80;2.97;;;22.50;48.40;;;;;;5018361;28;20160;-68
2021/09/25 03:34:33;;;;;;;2.45;2.17;;;22.40;48.40;;;;;;5025160;28;20545;-68
2021/09/25 03:37:00;;;;;;;2.90;2.60;;;22.40;48.50;;;;;;5026331;28;20525;-68
2021/09/25 03:39:27;;;;;;;3.55;2.75;;;22.40;48.50;;;;;;5026787;28;20623;-68
2021/09/25 03:41:54;;;;;;;4.63;2.90;;;22.40;48.50;;;;;;5017372;28;20148;-69
2021/09/25 03:44:21;;;;;;;3.13;2.42;;;22.40;48.50;;;;;;5026977;28;20045;-69
2021/09/25 03:46:49;;;;;;;2.53;2.30;;;22.40;48.50;;;;;;5030100;28;20045;-68
2021/09/25 03:49:16;;;;;;;2.90;2.63;;;22.40;48.50;;;;;;5030983;28;20052;-68
2021/09/25 03:51:43;;;;;;;2.47;2.28;;;22.40;48.50;;;;;;5021576;28;20102;-69
2021/09/25 03:54:10;;;;;;;2.72;2.50;;;22.40;48.50;;;;;;5030837;28;20136;-68
2021/09/25 03:56:37;;;;;;;2.83;2.63;;;22.40;48.50;;;;;;5030287;28;20041;-68
2021/09/25 03:59:04;;;;;;;3.00;2.70;;;22.40;48.50;;;;;;5030440;28;20053;-69
2021/09/25 04:01:31;;;;;;;3.58;2.83;;;22.40;48.50;;;;;;5021061;28;20128;-68
2021/09/25 04:03:59;;;;;;;2.60;2.40;;;22.40;48.60;;;;;;5031220;28;20382;-68
2021/09/25 04:06:26;;;;;;;2.10;1.80;;;22.40;48.50;;;;;;5029132;28;20409;-68
2021/09/25 04:08:54;;;;;;;3.38;2.50;;;22.40;48.50;;;;;;5030469;28;20413;-68
2021/09/25 04:11:21;;;;;;;3.00;2.80;;;22.40;48.50;;;;;;5021049;28;20555;-69
2021/09/25 04:13:48;;;;;;;4.55;2.30;;;22.40;48.40;;;;;;5029947;28;20080;-69
2021/09/25 04:16:15;;;;;;;4.07;2.45;;;22.40;48.40;;;;;;5030567;28;20049;-68
2021/09/25 04:18:42;;;;;;;2.78;2.40;;;22.40;48.40;;;;;;5030695;28;20091;-68
2021/09/25 04:21:09;;;;;;;3.03;2.72;;;22.40;48.40;;;;;;5018398;28;20588;-68
2021/09/25 04:23:36;;;;;;;2.40;2.20;;;22.40;48.40;;;;;;5030549;28;20081;-68
2021/09/25 04:26:04;;;;;;;2.72;2.53;;;22.40;48.40;;;;;;5029886;28;20379;-68
2021/09/25 04:28:31;;;;;;;2.72;2.30;;;22.40;48.40;;;;;;5029859;28;20501;-68
2021/09/25 04:30:58;;;;;;;2.75;2.30;;;22.40;48.40;;;;;;5018689;28;20140;-67
2021/09/25 04:33:25;;;;;;;2.92;2.65;;;22.40;48.40;;;;;;5030110;28;20479;-69
2021/09/25 04:35:52;;;;;;;2.75;2.30;;;22.40;48.40;;;;;;5029941;28;20052;-68
2021/09/25 04:38:20;;;;;;;2.15;1.95;;;22.40;48.30;;;;;;5029494;28;20085;-68
2021/09/25 04:40:47;;;;;;;2.50;2.30;;;22.40;48.30;;;;;;5023746;28;20049;-68
2021/09/25 04:43:14;;;;;;;2.42;2.22;;;22.40;48.30;;;;;;5028805;28;20132;-68
2021/09/25 04:45:41;;;;;;;2.65;2.40;;;22.40;48.30;;;;;;5029690;28;20041;-68
2021/09/25 04:48:08;;;;;;;2.58;2.38;;;22.40;48.30;;;;;;5029988;28;20045;-69
2021/09/25 04:50:35;;;;;;;2.72;2.50;;;22.40;48.30;;;;;;5021978;28;20068;-68
2021/09/25 04:53:11;;;;;;;2.78;2.50;;;22.40;48.30;;;;;;5027007;28;20151;-68
2021/09/25 04:55:39;;;;;;;2.17;2.05;;;22.40;48.20;;;;;;5028988;28;20136;-69
2021/09/25 04:58:06;;;;;;;2.92;2.25;;;22.40;48.30;;;;;;5028898;28;20049;-69
2021/09/25 05:00:33;;;;;;;2.50;2.30;;;22.40;48.30;;;;;;5021823;28;20136;-69
2021/09/25 05:03:01;;;;;;;2.45;2.25;;;22.40;48.30;;;;;;5023761;28;20486;-69
2021/09/25 05:05:30;;;;;;;2.50;2.28;;;22.40;48.30;;;;;;5028822;28;20410;-69
2021/09/25 05:07:57;;;;;;;2.40;2.17;;;22.40;48.30;;;;;;5028077;28;20052;-69
2021/09/25 05:10:25;;;;;;;2.03;1.88;;;22.40;48.30;;;;;;5023497;28;20104;-68
2021/09/25 05:12:52;;;;;;;2.72;2.47;;;22.40;48.30;;;;;;5024284;28;20131;-69
2021/09/25 05:15:19;;;;;;;2.90;2.67;;;22.40;48.10;;;;;;5029290;28;20053;-69
2021/09/25 05:17:46;;;;;;;2.40;2.20;;;22.40;48.00;;;;;;5029365;28;20128;-69
2021/09/25 05:20:14;;;;;;;2.30;2.10;;;22.40;48.00;;;;;;5023335;28;20080;-68
2021/09/25 05:22:41;;;;;;;2.25;2.08;;;22.50;48.00;;;;;;5023734;28;20049;-69
2021/09/25 05:25:09;;;;;;;2.30;2.20;;;22.50;47.90;;;;;;5028971;28;20218;-70
2021/09/25 05:27:36;;;;;;;2.00;1.90;;;22.50;47.90;;;;;;5027291;28;20056;-69
2021/09/25 05:30:05;;;;;;;2.55;2.35;;;22.50;47.90;;;;;;5024906;28;20429;-69
2021/09/25 05:32:32;;;;;;;2.05;1.88;;;22.50;47.80;;;;;;5020791;28;20081;-69
2021/09/25 05:35:00;;;;;;;2.40;2.20;;;22.60;47.80;;;;;;5028795;28;20076;-70
2021/09/25 05:37:27;;;;;;;2.67;2.47;;;22.50;47.70;;;;;;5028485;28;20072;-69
2021/09/25 05:39:54;;;;;;;2.10;1.90;;;22.50;47.60;;;;;;5022053;28;20054;-68
2021/09/25 05:42:24;;;;;;;2.20;2.00;;;22.50;47.50;;;;;;5022142;28;20140;-69
2021/09/25 05:44:53;;;;;;;2.00;1.90;;;22.60;47.50;;;;;;5028579;28;20435;-70
2021/09/25 05:47:22;;;;;;;3.72;1.58;;;22.60;47.40;;;;;;5028782;28;20118;-69
2021/09/25 05:49:49;;;;;;;2.03;1.92;;;22.60;47.30;;;;;;5023534;28;20160;-68
2021/09/25 05:52:18;;;;;;;2.65;2.30;;;22.60;47.30;;;;;;5023458;28;20144;-69
2021/09/25 05:54:45;;;;;;;1.60;1.50;;;22.70;47.20;;;;;;5028779;28;20621;-69
2021/09/25 05:57:12;;;;;;;2.10;1.92;;;22.70;47.10;;;;;;5028223;28;20132;-69
2021/09/25 05:59:39;;;;;;;2.17;1.98;;;22.70;47.10;;;;;;5023256;28;20149;-68
2021/09/25 06:02:07;;;;;;;2.45;2.25;;;22.70;47.10;;;;;;5022758;28;20132;-68
2021/09/25 06:04:36;;;;;;;2.88;2.13;;;22.70;47.00;;;;;;5028599;28;20053;-70
2021/09/25 06:07:05;;;;;;;1.73;1.63;;;22.70;47.40;;;;;;5028134;28;20136;-69
2021/09/25 06:09:35;;;;;;;1.83;1.70;;;22.80;46.90;;;;;;5025522;28;20354;-68
2021/09/25 06:12:04;;;;;;;2.15;1.95;;;22.80;46.90;;;;;;5018680;28;20053;-69
2021/09/25 06:14:31;;;;;;;2.00;1.80;;;22.80;46.80;;;;;;5027688;28;20064;-69
2021/09/25 06:16:58;;;;;;;1.77;1.67;;;22.80;46.80;;;;;;5028267;28;20138;-69
2021/09/25 06:19:25;;;;;;;1.80;1.70;;;22.80;46.80;;;;;;5027215;28;20099;-68
2021/09/25 06:21:53;;;;;;;1.90;1.80;;;22.80;46.80;;;;;;5018667;28;20049;-69
2021/09/25 06:24:20;;;;;;;2.38;2.20;;;22.80;46.80;;;;;;5028216;28;20050;-69
2021/09/25 06:26:47;;;;;;;1.80;1.70;;;22.80;46.80;;;;;;5027903;28;20380;-69
2021/09/25 06:29:14;;;;;;;1.67;1.58;;;22.80;46.80;;;;;;5027867;28;20071;-69
2021/09/25 06:31:42;;;;;;;2.03;1.92;;;22.80;46.80;;;;;;4999073;28;20160;-67
2021/09/25 06:34:09;;;;;;;1.92;1.83;;;22.90;46.90;;;;;;5025892;28;20049;-68
2021/09/25 06:36:41;;;;;;;2.13;1.90;;;22.90;46.90;;;;;;5027247;28;20069;-68
2021/09/25 06:39:08;;;;;;;2.50;1.90;;;22.90;46.80;;;;;;5026337;28;20083;-68
2021/09/25 06:41:36;;;;;;;2.10;2.00;;;22.90;46.80;;;;;;5017008;28;20092;-67
2021/09/25 06:44:04;;;;;;;2.80;2.50;;;22.90;46.80;;;;;;5027822;28;20169;-68
2021/09/25 06:46:32;;;;;;;2.20;2.00;;;23.00;46.80;;;;;;5023334;28;20490;-68
2021/09/25 06:48:59;;;;;;;2.55;2.35;;;23.00;46.80;;;;;;5021333;28;20054;-68
2021/09/25 06:51:28;;;;;;;2.05;1.95;;;23.00;46.80;;;;;;5016240;28;20460;-67
2021/09/25 06:53:55;;;;;;;1.92;1.77;;;23.00;46.70;;;;;;5028165;28;20136;-68
2021/09/25 06:56:23;;;;;;;2.22;2.05;;;23.00;46.70;;;;;;5027161;28;20049;-68
2021/09/25 06:58:51;;;;;;;2.40;2.20;;;23.00;46.70;;;;;;5027638;28;20042;-68
2021/09/25 07:01:19;;;;;;;2.10;2.00;;;23.10;46.80;;;;;;5017568;28;20081;-67
2021/09/25 07:03:46;;;;;;;2.28;2.15;;;23.10;46.80;;;;;;5026696;28;20047;-68
2021/09/25 07:06:14;;;;;;;2.33;2.08;;;23.10;46.70;;;;;;5027894;28;20046;-68
2021/09/25 07:08:41;;;;;;;2.15;2.05;;;23.10;46.70;;;;;;5026813;28;20140;-68
2021/09/25 07:11:08;;;;;;;2.33;2.17;;;23.20;46.80;;;;;;5019452;28;20119;-67
2021/09/25 07:13:36;;;;;;;2.90;1.88;;;23.20;46.80;;;;;;5026742;28;20136;-68
2021/09/25 07:16:03;;;;;;;2.40;2.13;;;23.20;46.80;;;;;;5025225;28;20052;-68
2021/09/25 07:18:31;;;;;;;2.55;2.10;;;23.20;46.80;;;;;;5023320;28;20133;-68
2021/09/25 07:20:58;;;;;;;2.35;2.15;;;23.20;46.80;;;;;;5018156;28;20429;-67
2021/09/25 07:23:25;;;;;;;2.22;2.10;;;23.20;46.80;;;;;;5030604;28;20128;-68
2021/09/25 07:25:52;;;;;;;2.10;2.00;;;23.20;46.80;;;;;;5030948;28;20383;-68
2021/09/25 07:28:19;;;;;;;1.95;1.85;;;23.30;46.90;;;;;;5028037;28;20176;-68
2021/09/25 07:30:48;;;;;;;2.35;2.10;;;23.30;47.00;;;;;;5016791;28;20077;-67
2021/09/25 07:33:16;;;;;;;1.80;1.70;;;23.30;46.90;;;;;;5019494;28;20057;-68
2021/09/25 07:35:44;;;;;;;1.83;1.73;;;23.30;46.90;;;;;;5030861;28;20147;-68
2021/09/25 07:38:12;;;;;;;1.80;1.70;;;23.40;47.00;;;;;;5037868;28;20104;-68
2021/09/25 07:40:39;;;;;;;2.42;2.20;;;23.40;46.90;;;;;;5023419;28;20541;-67
2021/09/25 07:43:06;;;;;;;1.88;1.77;;;23.50;46.90;;;;;;5027715;28;20051;-68
2021/09/25 07:45:33;;;;;;;1.98;1.85;;;23.40;46.80;;;;;;5029413;28;20458;-68
2021/09/25 07:48:01;;;;;;;1.60;1.50;;;23.50;46.90;;;;;;5028726;28;20546;-68
2021/09/25 07:50:28;;;;;;;2.05;1.90;;;23.50;46.90;;;;;;5022562;28;20077;-67
2021/09/25 07:52:56;;;;;;;2.30;2.10;;;23.50;46.90;;;;;;5025503;28;20068;-68
2021/09/25 07:55:24;;;;;;;1.67;1.58;;;23.50;46.90;;;;;;5030728;28;20556;-67
2021/09/25 07:57:52;;;;;;;1.67;1.58;;;23.50;46.80;;;;;;5029545;28;20049;-68
2021/09/25 08:00:19;;;;;;;1.85;1.75;;;23.60;46.90;;;;;;5020684;28;20077;-67
2021/09/25 08:02:46;;;;;;;1.75;1.60;;;23.60;46.80;;;;;;5027546;28;20076;-67
2021/09/25 08:05:14;;;;;;;1.85;1.75;;;23.60;46.80;;;;;;5019306;28;20128;-68
2021/09/25 08:07:41;;;;;;;1.60;1.50;;;23.60;46.80;;;;;;5010727;28;20120;-68
2021/09/25 08:10:10;;;;;;;1.85;1.63;;;23.70;46.70;;;;;;5010768;28;20060;-67
2021/09/25 08:12:38;;;;;;;2.03;1.85;;;23.70;46.70;;;;;;5023637;28;20107;-68
2021/09/25 08:15:08;;;;;;;2.00;1.90;;;23.70;46.70;;;;;;5035120;28;20084;-68
2021/09/25 08:17:36;;;;;;;1.60;1.50;;;23.80;46.70;;;;;;5029743;28;20108;-68
2021/09/25 08:20:06;;;;;;;1.70;1.55;;;23.80;46.60;;;;;;5023469;28;20141;-68
2021/09/25 08:22:33;;;;;;;;;;;23.80;46.50;;;;;;5020413;28;20072;-68
2021/09/25 08:25:00;;;;;;;1.63;1.52;;;23.90;46.50;;;;;;5011227;28;20441;-68
2021/09/25 08:27:28;;;;;;;1.60;1.50;;;23.90;46.40;;;;;;5010102;28;20069;-68
2021/09/25 08:29:55;;;;;;;1.67;1.58;;;23.90;46.30;;;;;;5007946;28;20087;-67
2021/09/25 08:32:23;;;;;;;1.60;1.50;;;24.00;46.40;;;;;;5023167;28;20087;-67
2021/09/25 08:34:50;;;;;;;1.83;1.73;;;24.00;46.30;;;;;;5029647;28;20092;-68
2021/09/25 08:37:17;;;;;;;1.92;1.83;;;24.00;46.20;;;;;;5029951;28;20132;-68
2021/09/25 08:39:44;;;;;;;1.70;1.60;;;24.00;46.20;;;;;;5025049;28;20081;-67
2021/09/25 08:42:17;;;;;;;1.60;1.50;;;24.00;46.10;;;;;;5024316;28;20493;-68
2021/09/25 08:44:50;;;;;;;1.40;1.30;;;24.10;46.20;;;;;;5029460;28;20059;-68
2021/09/25 08:47:19;;;;;;;1.88;1.77;;;24.10;46.10;;;;;;5029645;28;20138;-68
2021/09/25 08:49:46;;;;;;;1.65;1.55;;;24.10;46.10;;;;;;5024962;28;20052;-67
2021/09/25 08:52:14;;;;;;;1.85;1.75;;;24.10;46.00;;;;;;5023777;28;20136;-68
2021/09/25 08:54:41;;;;;;;1.60;1.50;;;24.10;46.00;;;;;;5029943;28;20391;-68
2021/09/25 08:57:08;;;;;;;1.80;1.70;;;24.10;46.00;;;;;;5029375;28;20077;-68
2021/09/25 08:59:36;;;;;;;1.80;1.70;;;24.20;46.00;;;;;;5026074;28;20577;-67
2021/09/25 09:02:22;;;;;;;1.65;1.55;;;24.20;45.90;;;;;;5023466;28;20231;-67
2021/09/25 09:04:54;;;;;;;1.40;1.30;;;24.20;45.90;;;;;;5029489;28;20063;-68
2021/09/25 09:07:27;;;;;;;1.40;1.40;;;24.20;45.90;;;;;;5029299;28;20152;-68
2021/09/25 09:09:57;;;;;;;1.70;1.60;;;24.20;45.90;;;;;;5024007;28;20175;-67
2021/09/25 09:12:25;;;;;;;1.75;1.65;;;24.30;45.90;;;;;;5023916;28;20084;-68
2021/09/25 09:14:54;;;;;;;1.50;1.40;;;24.30;45.90;;;;;;5028990;28;20140;-68
2021/09/25 09:17:30;;;;;;;2.25;2.15;;;24.30;45.80;;;;;;5029523;28;20045;-68
2021/09/25 09:20:07;;;;;;;1.50;1.40;;;24.30;45.80;;;;;;5023487;28;20061;-67
2021/09/25 09:22:34;;;;;;;1.90;1.80;;;24.30;45.80;;;;;;5021785;28;20486;-68
2021/09/25 09:25:07;;;;;;;1.38;1.38;;;24.30;45.80;;;;;;5029013;28;20060;-68
2021/09/25 09:27:34;;;;;;;1.30;1.30;;;24.30;45.80;;;;;;5028172;28;20140;-68
2021/09/25 09:30:08;;;;;;;2.10;1.90;;;24.30;45.70;;;;;;5025167;28;20049;-67
2021/09/25 09:32:45;;;;;;;1.50;1.40;;;24.30;45.70;;;;;;5022394;28;20132;-67
2021/09/25 09:35:16;;;;;;;1.30;1.30;;;24.40;45.70;;;;;;5027848;28;20064;-68
2021/09/25 09:37:55;;;;;;;1.65;1.55;;;24.40;45.70;;;;;;5028021;28;20049;-68
2021/09/25 09:40:23;;;;;;;1.60;1.50;;;24.40;45.60;;;;;;5021989;28;20081;-67
2021/09/25 09:42:50;;;;;;;1.40;1.30;;;24.40;45.60;;;;;;5024771;28;20092;-68
2021/09/25 09:45:28;;;;;;;1.20;1.20;;;24.40;45.60;;;;;;5028475;28;20128;-68
2021/09/25 09:47:59;;;;;;;1.88;1.77;;;24.40;45.60;;;;;;5028076;28;20084;-68
2021/09/25 09:50:29;;;;;;;1.27;1.17;;;24.50;45.70;;;;;;5020435;28;20072;-67
2021/09/25 09:53:11;;;;;;;1.30;1.30;;;24.50;45.60;;;;;;5025147;28;20056;-68
2021/09/25 09:55:45;;;;;;;1.17;1.17;;;24.50;45.70;;;;;;5028576;28;20061;-67
2021/09/25 09:58:12;;;;;;;1.70;1.60;;;24.50;45.60;;;;;;5028111;28;20042;-68
2021/09/25 10:00:39;;;;;;;1.85;1.67;;;24.50;45.60;;;;;;5021230;28;20140;-67
2021/09/25 10:03:09;;;;;;;1.77;1.67;;;24.50;45.60;;;;;;5025230;28;20402;-69
2021/09/25 10:05:38;;;;;;;1.55;1.45;;;24.50;45.60;;;;;;5028663;28;20049;-68
2021/09/25 10:08:06;;;;;;;1.40;1.30;;;24.50;45.60;;;;;;5026518;28;20068;-68
2021/09/25 10:10:35;;;;;;;1.67;1.58;;;24.50;45.70;;;;;;5019820;28;20156;-67
2021/09/25 10:13:02;;;;;;;1.98;1.88;;;24.50;45.70;;;;;;5022951;28;20135;-68
2021/09/25 10:15:30;;;;;;;1.67;1.58;;;24.50;45.70;;;;;;5026944;28;20534;-68
2021/09/25 10:17:57;;;;;;;1.60;1.50;;;24.60;45.70;;;;;;5028119;28;20798;-68
2021/09/25 10:20:24;;;;;;;1.80;1.70;;;24.50;45.70;;;;;;5020089;28;20081;-68
2021/09/25 10:22:52;;;;;;;1.52;1.42;;;24.50;45.60;;;;;;5025628;28;20144;-68
2021/09/25 10:25:20;;;;;;;1.50;1.40;;;24.60;45.70;;;;;;5028473;28;20132;-68
2021/09/25 10:27:47;;;;;;;1.60;1.50;;;24.60;45.70;;;;;;5027617;28;20096;-68
2021/09/25 10:30:14;;;;;;;1.58;1.48;;;24.60;45.70;;;;;;5019822;28;20049;-67
2021/09/25 10:32:48;;;;;;;1.60;1.40;;;24.60;45.70;;;;;;5025462;28;20087;-68
2021/09/25 10:35:21;;;;;;;1.95;1.70;;;24.60;45.70;;;;;;5027158;28;20131;-68
2021/09/25 10:37:54;;;;;;;1.13;1.13;;;24.60;45.60;;;;;;5027511;28;20139;-68
2021/09/25 10:40:42;;;;;;;1.75;1.63;;;24.60;45.60;;;;;;5018978;28;20056;-67
2021/09/25 10:43:19;;;;;;;1.30;1.30;;;24.60;45.70;;;;;;5023225;28;20049;-68
2021/09/25 10:45:51;;;;;;;1.40;1.30;;;24.60;45.70;;;;;;5027897;28;20092;-68
2021/09/25 10:48:28;;;;;;;1.92;1.83;;;24.60;45.70;;;;;;5027692;28;20700;-68
2021/09/25 10:50:59;;;;;;;1.45;1.40;;;24.60;45.70;;;;;;5016175;28;20088;-67
2021/09/25 10:53:37;;;;;;;1.70;1.60;;;24.70;45.60;;;;;;5027633;28;20507;-68
2021/09/25 10:56:06;;;;;;;1.42;1.33;;;24.70;45.50;;;;;;5027115;28;20090;-67
2021/09/25 10:58:37;;;;;;;1.42;1.40;;;24.70;45.50;;;;;;5026928;28;20084;-68
2021/09/25 11:01:07;;;;;;;1.67;1.58;;;24.70;45.50;;;;;;5017761;28;20092;-67
2021/09/25 11:03:53;;;;;;;1.70;1.60;;;24.70;45.50;;;;;;5025845;28;20071;-68
2021/09/25 11:06:29;;;;;;;1.55;1.45;;;24.70;45.50;;;;;;5026656;28;20133;-68
2021/09/25 11:09:05;;;;;;;1.60;1.60;;;24.70;46.10;;;;;;5027217;28;20137;-68
2021/09/25 11:11:40;;;;;;;1.42;1.40;;;24.70;45.50;;;;;;5015410;28;20045;-68
2021/09/25 11:14:19;;;;;;;1.90;1.80;;;24.80;45.60;;;;;;5027309;28;20096;-68
2021/09/25 11:17:05;;;;;;;1.63;1.52;;;24.80;45.60;;;;;;5027006;28;20072;-68
2021/09/25 11:19:43;;;;;;;1.70;1.60;;;24.80;45.60;;;;;;5025323;28;20065;-66
2021/09/25 11:22:17;;;;;;;1.60;1.50;;;24.80;45.60;;;;;;5021052;28;20136;-67
2021/09/25 11:25:02;;;;;;;1.80;1.70;;;24.80;45.60;;;;;;5027223;28;20049;-68
2021/09/25 11:27:40;;;;;;;1.70;1.60;;;24.80;45.70;;;;;;5027377;28;20120;-69
2021/09/25 11:30:16;;;;;;;1.33;1.33;;;24.80;46.00;;;;;;5021929;28;20057;-67
2021/09/25 11:32:53;;;;;;;1.98;1.88;;;24.80;45.80;;;;;;5024684;28;20132;-68
2021/09/25 11:35:23;;;;;;;1.38;1.38;;;24.80;45.80;;;;;;5026972;28;20053;-68
2021/09/25 11:38:07;;;;;;;1.80;1.70;;;24.80;45.80;;;;;;5026785;28;20544;-68
2021/09/25 11:40:37;;;;;;;1.83;1.73;;;24.80;45.80;;;;;;5018044;28;20092;-68
2021/09/25 11:43:10;;;;;;;1.85;1.75;;;24.80;45.80;;;;;;5023835;28;20132;-68
2021/09/25 11:45:41;;;;;;;1.70;1.60;;;24.80;45.80;;;;;;5026072;28;20558;-68
2021/09/25 11:48:11;;;;;;;1.80;1.73;;;24.80;45.80;;;;;;5026646;28;20057;-68
2021/09/25 11:50:40;;;;;;;;;;;24.80;45.80;;;;;;5019473;28;20507;-68
2021/09/25 11:53:13;;;;;;;2.03;1.90;;;24.80;45.80;;;;;;5023449;28;20362;-68
2021/09/25 11:55:42;;;;;;;1.40;1.33;;;24.80;45.80;;;;;;5026258;28;20068;-68
2021/09/25 11:58:11;;;;;;;1.80;1.70;;;24.80;45.80;;;;;;5026490;28;20056;-68
2021/09/25 12:00:45;;;;;;;1.83;1.73;;;24.90;45.80;;;;;;5020545;28;20049;-68
2021/09/25 12:03:13;;;;;;;2.28;2.08;;;24.80;45.80;;;;;;5025859;28;20046;-67
2021/09/25 12:05:44;;;;;;;1.90;1.80;;;24.90;45.90;;;;;;5025995;28;20053;-68
2021/09/25 12:08:13;;;;;;;;;;;24.90;45.90;;;;;;5030892;28;20049;-68
2021/09/25 12:10:43;;;;;;;1.88;1.77;;;24.90;45.90;;;;;;5023024;28;20330;-67
2021/09/25 12:13:18;;;;;;;2.00;1.90;;;24.90;45.90;;;;;;5028049;28;20136;-68
2021/09/25 12:16:05;;;;;;;2.17;2.05;;;24.90;46.40;;;;;;5030330;28;20076;-68
2021/09/25 12:18:33;;;;;;;2.10;2.00;;;24.90;45.80;;;;;;5030164;28;20339;-68
2021/09/25 12:21:08;;;;;;;3.05;1.80;;;24.90;45.70;;;;;;5020206;28;20132;-67
2021/09/25 12:23:54;;;;;;;2.00;1.90;;;24.90;45.70;;;;;;5030178;28;20132;-68
2021/09/25 12:26:24;;;;;;;2.25;2.13;;;24.90;45.70;;;;;;5029883;28;20049;-68
2021/09/25 12:28:54;;;;;;;1.83;1.73;;;24.90;45.70;;;;;;5028665;28;20052;-68
2021/09/25 12:31:28;;;;;;;;;;;24.90;45.60;;;;;;5019285;28;20164;-67
2021/09/25 12:33:59;;;;;;;2.15;2.03;;;24.90;45.60;;;;;;5030006;28;19975;-68
2021/09/25 12:36:32;;;;;;;1.60;1.50;;;25.00;45.70;;;;;;5029924;28;20053;-68
2021/09/25 12:39:08;;;;;;;2.05;1.95;;;25.00;45.70;;;;;;5029675;28;20586;-68
2021/09/25 12:41:38;;;;;;;1.88;1.77;;;25.00;45.70;;;;;;5020230;28;20136;-68
2021/09/25 12:44:06;;;;;;;1.83;1.73;;;25.00;45.70;;;;;;5029863;28;20086;-68
2021/09/25 12:46:37;;;;;;;1.95;1.85;;;25.00;45.70;;;;;;5029567;28;20570;-68
2021/09/25 12:49:08;;;;;;;1.80;1.70;;;25.00;45.70;;;;;;5029503;28;20049;-68
2021/09/25 12:51:39;;;;;;;2.13;1.77;;;25.00;45.70;;;;;;5018989;28;20084;-67
2021/09/25 12:54:10;;;;;;;2.30;2.10;;;25.00;45.70;;;;;;5028689;28;20081;-68
2021/09/25 12:56:40;;;;;;;2.20;2.10;;;25.10;45.80;;;;;;5029093;28;20056;-68